Weather reports worldwide

Advertisment
Glen Ogle, United Kingdom (3148): temperature & dewpoint: 27.06.2020 20:00:00 - 03.07.2020 20:00:00 (BST)Glen Ogle, United Kingdom (3148): wind speed & gusts: 27.06.2020 20:00:00 - 03.07.2020 20:00:00 (BST)Glen Ogle, United Kingdom (3148): wind direction: 27.06.2020 20:00:00 - 03.07.2020 20:00:00 (BST)
Date & Time tt [°C] td [°C] ff [km/h] ff [kn] fx [km/h] fx [kn] dd
03.07.2020 20:00:00 - - - - - - -
03.07.2020 19:00:00 7,2 7,0 29 16 - - W
03.07.2020 18:00:00 6,9 6,5 26 14 - - W
03.07.2020 17:00:00 7,2 7,1 29 16 - - W
03.07.2020 16:00:00 7,3 6,6 26 14 - - W
03.07.2020 15:00:00 7,8 7,3 31 17 46 25 W
03.07.2020 14:00:00 9,2 8,7 34 18 - - W
03.07.2020 13:00:00 9,5 8,8 13 7 - - SW
03.07.2020 12:00:00 8,9 8,0 11 6 - - S
03.07.2020 11:00:00 7,8 7,4 18 10 - - SSE
03.07.2020 10:00:00 6,6 6,5 13 7 - - SSE
03.07.2020 09:00:00 6,0 6,0 9 5 - - SSE
03.07.2020 08:00:00 5,5 5,5 13 7 - - SSE
03.07.2020 07:00:00 5,0 4,9 21 11 - - SSE
03.07.2020 06:00:00 5,2 5,2 22 12 - - SE
03.07.2020 05:00:00 5,2 4,8 24 13 - - SSE
03.07.2020 04:00:00 5,3 4,1 9 5 - - S
03.07.2020 03:00:00 5,3 3,2 9 5 - - SW
03.07.2020 02:00:00 5,0 3,5 16 9 - - SW
03.07.2020 01:00:00 5,5 3,7 13 7 - - W
03.07.2020 00:00:00 5,6 4,1 18 10 - - W
02.07.2020 23:00:00 6,0 4,1 16 9 - - WNW
02.07.2020 22:00:00 6,7 4,5 22 12 - - W
02.07.2020 21:00:00 7,7 5,6 24 13 - - W
02.07.2020 20:00:00 8,9 6,0 29 16 - - W
02.07.2020 19:00:00 9,7 6,6 15 8 - - W
02.07.2020 18:00:00 9,0 6,9 15 8 - - W
02.07.2020 17:00:00 10,2 4,1 15 8 - - WSW
02.07.2020 16:00:00 10,2 4,8 13 7 - - WSW
02.07.2020 15:00:00 10,6 1,5 21 11 - - SSW
02.07.2020 14:00:00 10,7 5,0 13 7 - - S
02.07.2020 13:00:00 9,6 4,8 11 6 - - S
02.07.2020 12:00:00 8,3 5,9 16 9 - - SSE
02.07.2020 11:00:00 7,8 5,3 15 8 - - SSE
02.07.2020 10:00:00 7,3 5,2 13 7 - - SSE
02.07.2020 09:00:00 7,4 3,1 11 6 - - SSE
02.07.2020 08:00:00 6,8 4,2 8 4 - - S
02.07.2020 07:00:00 6,7 4,7 9 5 - - SSE
02.07.2020 06:00:00 6,2 5,0 11 6 - - SSE
02.07.2020 05:00:00 6,0 5,3 8 4 - - SE
02.07.2020 04:00:00 6,1 5,6 8 4 - - ESE
02.07.2020 03:00:00 6,6 6,2 15 8 - - ESE
02.07.2020 02:00:00 6,5 6,1 8 4 - - ESE
02.07.2020 01:00:00 6,7 6,2 4 2 - - ESE
02.07.2020 00:00:00 6,7 6,4 11 6 - - ESE
01.07.2020 23:00:00 6,5 6,2 16 9 - - ENE
01.07.2020 22:00:00 7,2 7,1 9 5 - - E
01.07.2020 21:00:00 7,5 7,4 11 6 - - ESE
01.07.2020 20:00:00 7,7 7,3 16 9 - - ESE
01.07.2020 19:00:00 7,7 7,2 22 12 - - ESE
01.07.2020 18:00:00 7,6 7,3 24 13 - - ESE
01.07.2020 17:00:00 8,1 7,4 18 10 - - SE
01.07.2020 16:00:00 8,0 7,4 34 18 - - ESE
01.07.2020 15:00:00 8,6 7,9 28 15 - - ESE
01.07.2020 14:00:00 8,9 8,5 24 13 - - ESE
01.07.2020 13:00:00 8,8 8,5 18 10 - - ESE
01.07.2020 12:00:00 9,6 8,7 9 5 - - ESE
01.07.2020 11:00:00 9,7 8,8 13 7 - - E
01.07.2020 10:00:00 9,2 8,1 24 13 - - ENE
01.07.2020 09:00:00 9,1 8,1 24 13 - - NE
01.07.2020 08:00:00 9,1 8,5 21 11 - - NE
01.07.2020 07:00:00 9,2 8,7 13 7 - - NE
01.07.2020 06:00:00 9,8 9,0 11 6 - - ENE
01.07.2020 05:00:00 9,9 9,3 5 3 - - NE
01.07.2020 04:00:00 10,2 9,2 5 3 - - NNE
01.07.2020 03:00:00 9,8 8,7 8 4 - - N
01.07.2020 02:00:00 10,0 8,8 5 3 - - N
01.07.2020 01:00:00 10,2 8,8 5 3 - - N
01.07.2020 00:00:00 10,3 8,9 9 5 - - NNW
30.06.2020 23:00:00 10,5 8,9 5 3 - - NNW
30.06.2020 22:00:00 10,5 9,2 8 4 - - NW
30.06.2020 21:00:00 11,0 9,0 15 8 - - WNW
30.06.2020 20:00:00 11,5 8,7 18 10 - - W
30.06.2020 19:00:00 11,6 8,6 18 10 - - W
30.06.2020 18:00:00 11,8 7,7 22 12 - - W
30.06.2020 17:00:00 12,0 7,1 18 10 - - W
30.06.2020 16:00:00 11,7 7,6 21 11 - - W
30.06.2020 15:00:00 11,3 7,2 22 12 - - W
30.06.2020 14:00:00 10,9 7,6 22 12 - - W
30.06.2020 13:00:00 10,6 8,4 16 9 - - W
30.06.2020 12:00:00 10,7 7,6 11 6 - - WNW
30.06.2020 11:00:00 10,2 5,3 16 9 - - W
30.06.2020 10:00:00 9,3 5,6 21 11 - - W
30.06.2020 09:00:00 8,7 8,7 21 11 - - W
30.06.2020 08:00:00 8,5 8,5 22 12 - - W
30.06.2020 07:00:00 8,3 8,3 18 10 - - W
30.06.2020 06:00:00 8,4 8,4 31 17 - - W
30.06.2020 05:00:00 8,4 8,4 29 16 - - W
30.06.2020 04:00:00 8,5 8,5 31 17 46 25 W
30.06.2020 03:00:00 8,7 8,7 35 19 - - W
30.06.2020 02:00:00 8,9 8,9 29 16 - - W
30.06.2020 01:00:00 9,0 9,0 28 15 46 25 W
30.06.2020 00:00:00 9,0 9,0 39 21 54 29 W
29.06.2020 23:00:00 9,0 9,0 37 20 55 30 W
29.06.2020 22:00:00 8,8 8,8 41 22 54 29 W
29.06.2020 21:00:00 8,9 8,9 39 21 55 30 W
29.06.2020 20:00:00 9,2 9,1 35 19 54 29 W
29.06.2020 19:00:00 9,5 9,0 44 24 63 34 W
29.06.2020 18:00:00 9,7 9,7 39 21 59 32 W
29.06.2020 17:00:00 9,8 9,8 44 24 57 31 W
29.06.2020 16:00:00 9,8 9,8 39 21 54 29 W
29.06.2020 15:00:00 9,6 9,5 29 16 - - W
29.06.2020 14:00:00 9,2 8,1 28 15 50 27 W
29.06.2020 13:00:00 9,2 8,3 35 19 52 28 W
29.06.2020 12:00:00 9,2 8,3 39 21 67 36 W
29.06.2020 11:00:00 9,1 8,2 46 25 65 35 W
29.06.2020 10:00:00 8,4 7,6 35 19 55 30 SW
29.06.2020 09:00:00 8,0 7,1 34 18 61 33 W
29.06.2020 08:00:00 8,3 7,7 24 13 - - W
29.06.2020 07:00:00 8,2 8,2 24 13 - - W
29.06.2020 06:00:00 8,2 8,2 28 15 - - W
29.06.2020 05:00:00 8,7 8,7 28 15 - - W
29.06.2020 04:00:00 9,2 8,4 24 13 - - SW
29.06.2020 03:00:00 9,1 8,2 29 16 - - W
29.06.2020 02:00:00 9,2 9,2 28 15 - - SW
29.06.2020 01:00:00 8,7 8,7 26 14 46 25 S
29.06.2020 00:00:00 8,6 8,6 29 16 - - S
28.06.2020 23:00:00 8,6 8,6 29 16 46 25 S
28.06.2020 22:00:00 8,7 8,7 29 16 55 30 SSW
28.06.2020 21:00:00 8,7 8,7 31 17 55 30 S
28.06.2020 20:00:00 8,5 8,5 41 22 67 36 S
28.06.2020 19:00:00 8,5 8,5 46 25 67 36 S
28.06.2020 18:00:00 8,7 8,6 39 21 63 34 SSW
28.06.2020 17:00:00 9,4 8,2 48 26 61 33 SSW
28.06.2020 16:00:00 10,2 9,0 37 20 63 34 SSW
28.06.2020 15:00:00 10,0 8,2 31 17 48 26 SW
28.06.2020 14:00:00 9,7 9,4 34 18 55 30 S
28.06.2020 13:00:00 9,6 9,5 34 18 52 28 S
28.06.2020 12:00:00 10,0 9,4 28 15 - - S
28.06.2020 11:00:00 9,7 9,6 28 15 - - S
28.06.2020 10:00:00 9,3 9,1 24 13 - - S
28.06.2020 09:00:00 8,7 8,7 18 10 - - S
28.06.2020 08:00:00 8,3 8,3 9 5 - - SSE
28.06.2020 07:00:00 8,1 8,1 8 4 - - S
28.06.2020 06:00:00 7,8 7,8 9 5 - - SSE
28.06.2020 05:00:00 7,8 7,8 16 9 - - SSE
28.06.2020 04:00:00 7,8 7,8 28 15 - - S
28.06.2020 03:00:00 8,1 8,1 29 16 46 25 SSE
28.06.2020 02:00:00 8,1 8,1 34 18 50 27 SSE
28.06.2020 01:00:00 8,3 8,3 41 22 54 29 S
28.06.2020 00:00:00 8,6 8,6 39 21 52 28 SSE
27.06.2020 23:00:00 9,6 9,5 34 18 - - S
27.06.2020 22:00:00 10,0 9,6 31 17 52 28 S
27.06.2020 21:00:00 10,6 10,5 34 18 46 25 S
27.06.2020 20:00:00 11,5 10,2 15 8 - - SSE

tt = temperature
td = dewpoint
ff = wind speed
fx = gusts
dd = wind direction

Next stations